Pelion, SC (29123)

3:06 PM EST on February 14, 2016 (GMT -0500)
Pelion | | Change Station
CLOSE
Current Station
Personal Weather Station
Location: Pelion, SC
Elevation: 455 ft
Nearby Weather Stations

Elev 455 ft 33.77 °N, 81.20 °W | Updated 9 seconds ago

Partly Cloudy
Partly Cloudy
40.5 °F
Feels Like 40 °F
N
2.9
Wind Variable Wind from East
Gusts 4.0 mph

Today
High -- | Low -- °F
--% Chance of Precip.
Yesterday
High -- | Low -- °F
Precip. -- in
Pressure 30.40 in
Visibility 10.0 miles
Clouds Mostly Cloudy 13000 ft
Mostly Cloudy 24000 ft
Windchill 40 °F
Dew Point 11 °F
Humidity 29%
Rainfall 0.00 in
Snow Depth Not available.
7:10 AM 6:07 PM
Waxing Crescent, 45% visible
METAR KCAE 141956Z 08008KT 10SM BKN130 BKN240 03/M16 A3040 RMK AO2 SLP294 T00331161
Pressure 30.40 in
Visibility 10.0 miles
Clouds Mostly Cloudy 13000 ft
Mostly Cloudy 24000 ft
Windchill 40 °F
Dew Point 11 °F
Humidity 29%
Rainfall 0.00 in
Snow Depth Not available.
7:10 AM 6:07 PM
Waxing Crescent, 45% visible
METAR KCAE 141956Z 08008KT 10SM BKN130 BKN240 03/M16 A3040 RMK AO2 SLP294 T00331161

10-Day Weather Forecast

Almanac

Astronomy

Feb. 14, 2016 Rise Set
Actual Time
Civil Twilight
Nautical Twilight
Astronomical Twilight
Moon
Length of Visible Light
Length of Day
Tomorrow will be .
, % of the Moon is Illuminated

Today's Extremes

State Highs State Lows

Community

WunderPhotos

Upload Photos

1,892,880 photos uploaded!

WunderBlog® & News

Nearby

Air Quality

  Air Quality AQ Index Pollutant
Not available.

Snow Depth

Station Depth Elevation

Earthquake Activity

City Distance Mag. Time & Date
Minimum magnitude displayed is 2.5.

Coastal Water Temperatures

Place Temperature

Stations

Nearby Weather Stations

Station Location Temp. Windchill Dew Point Humidity Wind Precip. Elev Updated Type
                   

Watches & Warnings

There are currently no watches in effect.